NCAR-RAP Real-Time Weather Data

Output produced by METARs form (10 April 2020  07:25 UTC)
found at http://weather.rap.ucar.edu/surface/
 
KOSH 100653Z AUTO 29008KT 10SM CLR 00/M06 A2992 RMK AO2 SLP143 T00001056
KOSH 100553Z AUTO 31011G20KT 10SM CLR 01/M06 A2991 RMK AO2 PK WND 30026/0500 SLP137 T00111056 10044 20011 400670011 53014
KOSH 100453Z AUTO 31013G20KT 10SM CLR 02/M06 A2989 RMK AO2 SLP131 T00171056
KOSH 100353Z AUTO 33016G22KT 10SM CLR 02/M06 A2988 RMK AO2 PK WND 31032/0319 SLP127 T00221056
KOSH 100253Z 31013G24KT 10SM FEW050 03/M07 A2986 RMK AO2 PK WND 34027/0229 SLP122 T00281072 51031
KOSH 100153Z 31013G20KT 10SM BKN075 03/M08 A2984 RMK AO2 SLP113 T00331083
KOSH 100053Z 33012G21KT 10SM FEW075 03/M09 A2980 RMK AO2 SLP102 T00331094
KOSH 092353Z 29012KT 10SM FEW080 04/M04 A2977 RMK AO2 PK WND 29027/2301 SLP091 60000 T00391044 10067 20011 53018
KOSH 092253Z 30014G27KT 10SM SCT060 BKN075 05/M05 A2974 RMK AO2 PK WND 30031/2223 SLP080 T00501050
KOSH 092153Z 29018G27KT 10SM FEW043 BKN100 BKN110 03/M06 A2972 RMK AO2 PK WND 29030/2133 SLP074 T00331056
KOSH 092053Z 29014G21KT 10SM FEW075 05/M03 A2972 RMK AO2 PK WND 29030/2033 SNE05 SLP071 P0000 60000 T00501033 50008
KOSH 091953Z 28014G31KT 9SM -SN SCT037 SCT055 OVC070 02/M02 A2972 RMK AO2 PK WND 29031/1949 WSHFT 1842 SNB02E13B50 SLP074 P0000 T00171017
KOSH 091902Z 35015G23KT 6SM -SN SCT048 BKN060 BKN075 03/M02 A2971 RMK AO2 WSHFT 1842 SNB02 P0000 T00281017
KOSH 091853Z 36018G32KT 10SM FEW048 BKN055 04/M03 A2970 RMK AO2 PK WND 31032/1847 SLP065 T00391033
KOSH 091753Z 29022G38KT 10SM FEW046 SCT110 06/M05 A2969 RMK AO2 PK WND 28038/1752 SLP060 60000 T00561050 10056 20011 55001
KOSH 091653Z 30021G32KT 10SM SCT038 SCT045 BKN050 06/M04 A2969 RMK AO2 PK WND 30034/1625 RAB04E08B28E32SNB08E42 SLP059 P0000 T00561039
KOSH 091553Z 28015G28KT 10SM FEW036 BKN047 BKN060 03/M05 A2969 RMK AO2 PK WND 29028/1546 SNB02E12 SLP062 P0000 T00331050
KOSH 091453Z 30013G23KT 10SM SCT030 BKN038 OVC070 03/M03 A2969 RMK AO2 PK WND 30026/1354 SNB35E45 SLP062 P0000 60000 T00331028 58005
KOSH 091353Z 29018G24KT 10SM FEW028 03/M03 A2971 RMK AO2 SLP066 T00331033
KOSH 091253Z 28010G18KT 10SM CLR 02/M04 A2972 RMK AO2 SLP069 T00221039
KOSH 091153Z 29012KT 10SM CLR 01/M05 A2971 RMK AO2 SLP066 60000 70005 T00111050 10067 20011 53011
KOSH 091053Z 30015G22KT 10SM CLR 02/M05 A2969 RMK AO2 PK WND 29026/1009 SLP059 T00171050
KOSH 090953Z AUTO 30017KT 10SM CLR 03/M04 A2968 RMK AO2 PK WND 30027/0940 SLP056 T00281039
KOSH 090853Z AUTO 29012G21KT 10SM CLR 03/M04 A2968 RMK AO2 SLP054 60000 T00331039 51008